createdAt,value
2022-10-23T00:01:32.572Z,66.12
2022-10-23T00:04:06.791Z,66.66
2022-10-23T00:06:35.196Z,67.19
2022-10-23T00:09:04.980Z,66.52
2022-10-23T00:11:33.741Z,66.31
2022-10-23T00:14:02.865Z,67.33
2022-10-23T00:16:30.756Z,67.48
2022-10-23T00:18:58.722Z,67.56
2022-10-23T00:21:26.641Z,67.35
2022-10-23T00:23:54.400Z,65.81
2022-10-23T00:26:22.425Z,66.68
2022-10-23T00:28:51.957Z,67.08
2022-10-23T00:31:20.873Z,66.98
2022-10-23T00:33:48.746Z,67.23
2022-10-23T00:36:17.992Z,66.40
2022-10-23T00:38:46.149Z,66.10
2022-10-23T00:41:28.578Z,66.97
2022-10-23T00:43:59.234Z,65.62
2022-10-23T00:46:27.272Z,66.26
2022-10-23T00:48:55.027Z,66.28
2022-10-23T00:51:22.892Z,66.47
2022-10-23T00:54:01.181Z,66.34
2022-10-23T00:56:42.335Z,67.21
2022-10-23T00:59:10.381Z,67.35
2022-10-23T01:01:38.360Z,67.96
2022-10-23T01:04:06.764Z,67.47
2022-10-23T01:07:15.124Z,68.04
2022-10-23T01:09:56.224Z,67.57
2022-10-23T01:13:06.166Z,68.09
2022-10-23T01:15:48.551Z,67.82
2022-10-23T01:18:40.166Z,68.19
2022-10-23T01:21:22.408Z,68.13
2022-10-23T01:24:26.651Z,67.42
2022-10-23T01:27:09.790Z,67.39
2022-10-23T01:29:53.778Z,67.17
2022-10-23T01:32:40.525Z,67.72
2022-10-23T01:35:34.481Z,67.47
2022-10-23T01:38:14.885Z,67.95
2022-10-23T01:40:48.735Z,67.34
2022-10-23T01:43:20.402Z,67.87
2022-10-23T01:46:03.386Z,67.37
2022-10-23T01:48:31.269Z,67.48
2022-10-23T01:51:02.286Z,67.33
2022-10-23T01:53:31.665Z,67.60
2022-10-23T01:55:59.446Z,67.57
2022-10-23T01:58:27.458Z,67.54
2022-10-23T02:00:57.834Z,68.60
2022-10-23T02:03:27.248Z,67.88
2022-10-23T02:05:55.120Z,67.46
2022-10-23T02:08:22.979Z,67.68
2022-10-23T02:11:08.772Z,67.32
2022-10-23T02:13:50.148Z,66.95
2022-10-23T02:16:53.447Z,67.42
2022-10-23T02:19:34.401Z,67.36
2022-10-23T02:22:23.132Z,67.41
2022-10-23T02:25:23.901Z,67.48
2022-10-23T02:27:54.744Z,68.13
2022-10-23T02:30:24.780Z,68.21
2022-10-23T02:32:57.955Z,67.68
2022-10-23T02:35:26.123Z,67.66
2022-10-23T02:38:01.613Z,67.41
2022-10-23T02:40:41.043Z,67.31
2022-10-23T02:43:14.795Z,68.03
2022-10-23T02:46:00.114Z,68.33
2022-10-23T02:48:34.165Z,68.35
2022-10-23T02:51:15.132Z,67.97
2022-10-23T02:54:07.565Z,67.88
2022-10-23T02:56:45.675Z,68.21
2022-10-23T02:59:37.852Z,68.61
2022-10-23T03:02:13.288Z,68.87
2022-10-23T03:04:41.158Z,68.30
2022-10-23T03:07:13.841Z,68.75
2022-10-23T03:09:43.138Z,68.49
2022-10-23T03:12:11.102Z,68.80
2022-10-23T03:14:38.973Z,68.53
2022-10-23T03:17:06.757Z,68.86
2022-10-23T03:19:34.599Z,68.28
2022-10-23T03:22:04.105Z,68.34
2022-10-23T03:24:31.881Z,67.80
2022-10-23T03:26:59.676Z,67.89
2022-10-23T03:29:31.902Z,67.40
2022-10-23T03:31:59.967Z,67.95
2022-10-23T03:34:27.941Z,68.14
2022-10-23T03:36:55.869Z,67.52
2022-10-23T03:39:23.699Z,67.65
2022-10-23T03:41:51.737Z,67.12
2022-10-23T03:44:19.808Z,67.05
2022-10-23T03:46:47.720Z,67.22
2022-10-23T03:49:15.508Z,67.28
2022-10-23T03:51:51.905Z,67.71
2022-10-23T03:54:23.239Z,67.90
2022-10-23T03:56:53.674Z,67.82
2022-10-23T03:59:24.518Z,67.82
2022-10-23T04:01:52.397Z,67.83
2022-10-23T04:04:20.346Z,67.75
2022-10-23T04:06:48.213Z,67.93
2022-10-23T04:09:16.873Z,67.91
2022-10-23T04:11:44.975Z,67.84
2022-10-23T04:14:13.517Z,68.03
2022-10-23T04:16:41.825Z,67.66
2022-10-23T04:19:10.005Z,68.07
2022-10-23T04:21:37.967Z,67.73
2022-10-23T04:24:06.796Z,67.68
2022-10-23T04:26:34.723Z,67.24
2022-10-23T04:29:02.588Z,67.34
2022-10-23T04:31:30.950Z,66.70
2022-10-23T04:33:58.739Z,67.07
2022-10-23T04:36:30.387Z,67.44
2022-10-23T04:39:05.590Z,67.90
2022-10-23T04:41:33.500Z,67.65
2022-10-23T04:44:01.492Z,67.45
2022-10-23T04:46:29.525Z,67.49
2022-10-23T04:48:57.335Z,67.64
2022-10-23T04:51:30.589Z,67.19
2022-10-23T04:54:08.595Z,67.24
2022-10-23T04:56:45.464Z,66.91
2022-10-23T04:59:17.322Z,67.02
2022-10-23T05:01:45.744Z,67.42
2022-10-23T05:04:14.900Z,67.42
2022-10-23T05:07:01.296Z,67.54
2022-10-23T05:09:58.553Z,67.38
2022-10-23T05:12:40.857Z,67.05
2022-10-23T05:15:09.091Z,67.28
2022-10-23T05:17:38.021Z,67.39
2022-10-23T05:20:08.259Z,67.26
2022-10-23T05:22:37.590Z,67.23
2022-10-23T05:25:09.337Z,67.31
2022-10-23T05:27:37.115Z,67.52
2022-10-23T05:30:10.016Z,67.56
2022-10-23T05:32:38.730Z,67.33
2022-10-23T05:35:09.779Z,67.23
2022-10-23T05:37:38.871Z,66.69
2022-10-23T05:40:18.720Z,66.67
2022-10-23T05:42:47.838Z,66.94
2022-10-23T05:45:18.682Z,66.55
2022-10-23T05:48:33.429Z,66.81
2022-10-23T05:51:20.326Z,66.55
2022-10-23T05:54:08.303Z,66.94
2022-10-23T05:56:48.948Z,67.19
2022-10-23T05:59:40.133Z,67.16
2022-10-23T06:02:20.118Z,66.78
2022-10-23T06:04:52.594Z,66.82
2022-10-23T06:07:39.161Z,66.68
2022-10-23T06:10:08.277Z,66.95
2022-10-23T06:12:40.188Z,67.01
2022-10-23T06:15:11.312Z,66.71
2022-10-23T06:17:54.643Z,66.68
2022-10-23T06:20:26.551Z,67.01
2022-10-23T06:23:05.185Z,66.75
2022-10-23T06:25:54.118Z,66.87
2022-10-23T06:28:27.178Z,67.03
2022-10-23T06:30:54.933Z,67.27
2022-10-23T06:33:22.728Z,67.46
2022-10-23T06:35:50.741Z,67.53
2022-10-23T06:38:18.676Z,67.46
2022-10-23T06:40:54.325Z,67.41
2022-10-23T06:43:28.950Z,67.83
2022-10-23T06:46:16.511Z,67.99
2022-10-23T06:49:03.898Z,67.69
2022-10-23T06:51:36.722Z,67.73
2022-10-23T06:54:05.272Z,67.37
2022-10-23T06:56:48.284Z,67.36
2022-10-23T06:59:19.709Z,67.37
2022-10-23T07:01:47.779Z,67.10
2022-10-23T07:04:15.732Z,66.76
2022-10-23T07:06:44.096Z,66.70
2022-10-23T07:09:11.948Z,66.62
2022-10-23T07:11:54.869Z,66.90
2022-10-23T07:14:32.220Z,66.61
2022-10-23T07:17:01.178Z,65.85
2022-10-23T07:19:29.389Z,65.86
2022-10-23T07:21:59.040Z,65.81
2022-10-23T07:25:05.902Z,65.56
2022-10-23T07:27:38.581Z,65.49
2022-10-23T07:30:08.950Z,65.39
2022-10-23T07:32:44.166Z,65.43
2022-10-23T07:35:33.061Z,64.71
2022-10-23T07:38:09.688Z,65.71
2022-10-23T07:40:41.398Z,65.61
2022-10-23T07:43:10.617Z,65.58
2022-10-23T07:45:39.092Z,65.89
2022-10-23T07:48:14.333Z,66.08
2022-10-23T07:51:12.335Z,65.11
2022-10-23T07:53:43.637Z,65.20
2022-10-23T07:56:32.598Z,64.88
2022-10-23T07:59:16.638Z,64.66
2022-10-23T08:01:52.588Z,64.65
2022-10-23T08:04:23.457Z,64.14
2022-10-23T08:06:58.928Z,63.25
2022-10-23T08:09:27.133Z,63.54
2022-10-23T08:11:54.946Z,62.51
2022-10-23T08:14:24.266Z,63.17
2022-10-23T08:16:52.372Z,62.94
2022-10-23T08:19:20.278Z,62.95
2022-10-23T08:21:49.763Z,62.52
2022-10-23T08:24:18.011Z,61.63
2022-10-23T08:26:46.399Z,61.28
2022-10-23T08:29:14.748Z,61.21
2022-10-23T08:31:42.798Z,61.44
2022-10-23T08:34:19.204Z,61.29
2022-10-23T08:36:48.223Z,61.25
2022-10-23T08:39:16.070Z,60.82
2022-10-23T08:41:57.299Z,60.29
2022-10-23T08:44:32.145Z,60.65
2022-10-23T08:47:16.022Z,60.96
2022-10-23T08:50:19.660Z,59.50
2022-10-23T08:52:55.232Z,58.67
2022-10-23T08:55:31.095Z,63.40
2022-10-23T08:58:04.160Z,63.43
2022-10-23T09:00:32.171Z,62.60
2022-10-23T09:03:02.613Z,62.38
2022-10-23T09:05:32.266Z,61.90
2022-10-23T09:08:31.118Z,61.62
2022-10-23T09:11:22.388Z,61.56
2022-10-23T09:14:26.821Z,61.61
2022-10-23T09:17:26.176Z,61.21
2022-10-23T09:20:00.579Z,61.10
2022-10-23T09:22:29.012Z,61.23
2022-10-23T09:24:56.818Z,61.03
2022-10-23T09:27:24.683Z,60.96
2022-10-23T09:29:54.695Z,60.78
2022-10-23T09:32:43.658Z,60.45
2022-10-23T09:35:25.479Z,60.31
2022-10-23T09:37:53.798Z,60.34
2022-10-23T09:40:41.158Z,60.46
2022-10-23T09:43:18.072Z,60.47
2022-10-23T09:46:00.388Z,60.42
2022-10-23T09:48:29.115Z,59.96
2022-10-23T09:50:59.028Z,59.32
2022-10-23T09:53:32.748Z,60.94
2022-10-23T09:56:31.729Z,62.94
2022-10-23T09:59:19.050Z,62.81
2022-10-23T10:01:50.475Z,61.88
2022-10-23T10:04:39.116Z,61.30
2022-10-23T10:07:19.631Z,60.99
2022-10-23T10:09:47.800Z,60.91
2022-10-23T10:12:35.926Z,60.59
2022-10-23T10:15:13.728Z,60.46
2022-10-23T10:18:12.823Z,60.07
2022-10-23T10:20:46.613Z,59.73
2022-10-23T10:23:44.497Z,59.18
2022-10-23T10:29:41.360Z,63.21
2022-10-23T10:32:32.324Z,62.78
2022-10-23T10:35:11.498Z,62.32
2022-10-23T10:38:27.798Z,59.96
2022-10-23T10:41:26.899Z,59.82
2022-10-23T10:44:24.560Z,62.63
2022-10-23T10:47:15.985Z,63.42
2022-10-23T10:50:15.792Z,61.94
2022-10-23T10:53:19.332Z,61.07
2022-10-23T10:55:53.777Z,60.56
2022-10-23T10:58:38.862Z,60.23
2022-10-23T11:02:10.664Z,59.88
2022-10-23T11:04:49.088Z,59.03
2022-10-23T11:07:22.149Z,57.83
2022-10-23T11:09:50.024Z,59.76
2022-10-23T11:12:20.856Z,61.69
2022-10-23T11:14:48.819Z,62.65
2022-10-23T11:17:29.074Z,61.24
2022-10-23T11:20:05.864Z,59.21
2022-10-23T11:22:42.819Z,57.97
2022-10-23T11:25:34.963Z,58.80
2022-10-23T11:28:13.539Z,61.62
2022-10-23T11:30:57.423Z,61.48
2022-10-23T11:34:38.810Z,61.96
2022-10-23T11:37:09.148Z,62.93
2022-10-23T11:39:37.822Z,61.80
2022-10-23T11:42:15.515Z,57.87
2022-10-23T11:44:47.682Z,56.87
2022-10-23T11:47:27.428Z,59.19
2022-10-23T11:50:07.693Z,60.49
2022-10-23T11:53:13.391Z,62.55
2022-10-23T11:56:01.475Z,61.81
2022-10-23T11:58:48.964Z,60.18
2022-10-23T12:01:42.130Z,57.61
2022-10-23T12:04:12.790Z,58.26
2022-10-23T12:06:45.266Z,59.74
2022-10-23T12:09:46.306Z,59.94
2022-10-23T12:12:17.245Z,62.58
2022-10-23T12:14:49.705Z,62.00
2022-10-23T12:17:23.632Z,59.16
2022-10-23T12:20:02.347Z,56.77
2022-10-23T12:22:48.851Z,58.04
2022-10-23T12:25:20.195Z,60.91
2022-10-23T12:28:06.829Z,61.32
2022-10-23T12:30:51.433Z,63.72
2022-10-23T12:33:49.841Z,62.38
2022-10-23T12:36:54.980Z,60.47
2022-10-23T12:39:31.044Z,58.02
2022-10-23T12:42:00.348Z,59.52
2022-10-23T12:44:29.535Z,60.32
2022-10-23T12:47:00.933Z,62.50
2022-10-23T12:49:33.586Z,63.13
2022-10-23T12:52:07.055Z,60.72
2022-10-23T12:54:39.437Z,58.85
2022-10-23T12:57:26.088Z,58.77
2022-10-23T13:00:04.649Z,60.86
2022-10-23T13:02:34.418Z,60.84
2022-10-23T13:05:07.559Z,63.13
2022-10-23T13:07:43.879Z,63.60
2022-10-23T13:10:15.368Z,61.95
2022-10-23T13:12:58.838Z,60.18
2022-10-23T13:15:26.972Z,59.24
2022-10-23T13:17:57.808Z,57.01
2022-10-23T13:20:35.319Z,56.53
2022-10-23T13:23:31.446Z,57.02
2022-10-23T13:26:04.412Z,58.89
2022-10-23T13:28:35.149Z,59.21
2022-10-23T13:31:11.743Z,59.74
2022-10-23T13:33:41.036Z,61.08
2022-10-23T13:36:09.289Z,62.08
2022-10-23T13:38:38.590Z,64.70
2022-10-23T13:41:17.213Z,64.70
2022-10-23T13:43:46.263Z,63.37
2022-10-23T13:46:18.775Z,61.48
2022-10-23T13:48:46.850Z,59.61
2022-10-23T13:51:27.579Z,57.30
2022-10-23T13:53:58.696Z,58.15
2022-10-23T13:56:27.473Z,58.57
2022-10-23T13:58:55.510Z,60.02
2022-10-23T14:01:27.323Z,59.77
2022-10-23T14:03:56.774Z,60.92
2022-10-23T14:06:24.705Z,60.99
2022-10-23T14:08:52.526Z,62.04
2022-10-23T14:11:20.782Z,67.61
2022-10-23T14:13:49.118Z,67.16
2022-10-23T14:16:18.770Z,65.09
2022-10-23T14:18:46.935Z,63.48
2022-10-23T14:21:17.141Z,62.20
2022-10-23T14:23:45.024Z,61.40
2022-10-23T14:26:15.909Z,61.16
2022-10-23T14:28:43.931Z,60.77
2022-10-23T14:31:15.018Z,60.48
2022-10-23T14:33:43.654Z,60.31
2022-10-23T14:36:11.793Z,60.30
2022-10-23T14:38:39.914Z,60.10
2022-10-23T14:41:12.894Z,59.83
2022-10-23T14:43:40.852Z,59.69
2022-10-23T14:46:11.437Z,59.15
2022-10-23T14:48:39.436Z,57.71
2022-10-23T14:51:14.150Z,58.55
2022-10-23T14:53:42.139Z,59.85
2022-10-23T14:56:09.866Z,60.51
2022-10-23T14:58:37.656Z,60.75
2022-10-23T15:01:05.617Z,61.43
2022-10-23T15:03:33.470Z,61.85
2022-10-23T15:06:01.378Z,61.94
2022-10-23T15:08:29.645Z,68.16
2022-10-23T15:11:01.617Z,70.43
2022-10-23T15:13:29.683Z,68.84
2022-10-23T15:16:09.223Z,67.27
2022-10-23T15:21:10.374Z,65.23
2022-10-23T15:23:40.597Z,64.69
2022-10-23T15:26:14.198Z,63.73
2022-10-23T15:28:41.939Z,63.06
2022-10-23T15:31:29.423Z,62.67
2022-10-23T15:33:57.869Z,62.05
2022-10-23T15:36:26.654Z,61.77
2022-10-23T15:38:54.519Z,61.85
2022-10-23T15:41:28.241Z,62.16
2022-10-23T15:43:56.188Z,62.25
2022-10-23T15:46:24.006Z,61.88
2022-10-23T15:48:51.951Z,61.65
2022-10-23T15:51:20.093Z,61.17
2022-10-23T15:53:48.048Z,60.39
2022-10-23T15:56:15.985Z,59.86
2022-10-23T15:58:43.896Z,59.17
2022-10-23T16:01:11.824Z,58.29
2022-10-23T16:03:39.729Z,57.69
2022-10-23T16:06:10.139Z,58.01
2022-10-23T16:08:38.124Z,58.04
2022-10-23T16:11:18.960Z,59.65
2022-10-23T16:13:47.885Z,61.42
2022-10-23T16:16:15.974Z,60.79
2022-10-23T16:18:45.356Z,60.53
2022-10-23T16:21:24.781Z,61.44
2022-10-23T16:23:54.608Z,67.84
2022-10-23T16:26:22.638Z,72.14
2022-10-23T16:29:00.680Z,69.95
2022-10-23T16:31:28.671Z,68.39
2022-10-23T16:33:59.113Z,66.33
2022-10-23T16:36:27.244Z,66.21
2022-10-23T16:39:11.935Z,65.97
2022-10-23T16:41:58.520Z,64.80
2022-10-23T16:44:31.086Z,64.03
2022-10-23T16:47:00.658Z,63.40
2022-10-23T16:49:29.945Z,62.86
2022-10-23T16:51:58.368Z,62.31
2022-10-23T16:54:26.652Z,61.67
2022-10-23T16:56:54.509Z,61.69
2022-10-23T16:59:22.480Z,61.90
2022-10-23T17:01:50.405Z,61.81
2022-10-23T17:04:18.311Z,61.64
2022-10-23T17:06:46.178Z,61.56
2022-10-23T17:09:14.969Z,60.92
2022-10-23T17:11:44.469Z,60.85
2022-10-23T17:14:17.581Z,61.17
2022-10-23T17:16:50.806Z,61.16
2022-10-23T17:19:43.338Z,60.96
2022-10-23T17:22:10.847Z,59.86
2022-10-23T17:24:40.262Z,58.34
2022-10-23T17:27:08.118Z,57.31
2022-10-23T17:29:36.190Z,56.74
2022-10-23T17:32:04.464Z,56.20
2022-10-23T17:34:32.335Z,57.30
2022-10-23T17:37:00.502Z,57.77
2022-10-23T17:39:28.954Z,57.95
2022-10-23T17:41:57.564Z,58.57
2022-10-23T17:44:25.431Z,61.41
2022-10-23T17:46:56.676Z,67.18
2022-10-23T17:49:24.960Z,70.71
2022-10-23T17:51:54.469Z,70.32
2022-10-23T17:54:23.550Z,69.17
2022-10-23T17:56:54.821Z,68.02
2022-10-23T17:59:22.668Z,67.33
2022-10-23T18:01:51.002Z,66.68
2022-10-23T18:04:20.101Z,65.68
2022-10-23T18:06:50.865Z,64.96
2022-10-23T18:09:19.037Z,64.44
2022-10-23T18:11:48.115Z,63.95
2022-10-23T18:14:18.758Z,63.79
2022-10-23T18:16:46.987Z,63.55
2022-10-23T18:19:18.321Z,63.22
2022-10-23T18:21:47.645Z,63.00
2022-10-23T18:24:15.617Z,62.49
2022-10-23T18:26:44.030Z,62.54
2022-10-23T18:29:12.509Z,62.54
2022-10-23T18:31:40.913Z,62.53
2022-10-23T18:34:19.673Z,62.35
2022-10-23T18:36:48.295Z,62.33
2022-10-23T18:39:19.982Z,61.72
2022-10-23T18:41:50.358Z,61.69
2022-10-23T18:44:19.570Z,62.04
2022-10-23T18:46:47.847Z,62.66
2022-10-23T18:49:17.867Z,63.07
2022-10-23T18:51:45.897Z,63.40
2022-10-23T18:54:15.232Z,63.57
2022-10-23T18:56:44.326Z,63.83
2022-10-23T18:59:17.054Z,63.43
2022-10-23T19:01:45.056Z,62.87
2022-10-23T19:04:16.055Z,62.64
2022-10-23T19:06:45.558Z,62.18
2022-10-23T19:09:16.559Z,61.79
2022-10-23T19:11:45.452Z,61.27
2022-10-23T19:14:13.522Z,61.32
2022-10-23T19:17:14.561Z,61.01
2022-10-23T19:19:46.900Z,60.76
2022-10-23T19:22:15.923Z,60.71
2022-10-23T19:24:50.827Z,60.76
2022-10-23T19:27:20.053Z,60.99
2022-10-23T19:29:48.804Z,60.94
2022-10-23T19:32:16.706Z,60.92
2022-10-23T19:34:45.805Z,61.05
2022-10-23T19:39:49.211Z,60.68
2022-10-23T19:42:17.592Z,60.57
2022-10-23T19:44:45.455Z,60.78
2022-10-23T19:47:13.321Z,61.06
2022-10-23T19:49:41.888Z,61.22
2022-10-23T19:52:09.772Z,61.02
2022-10-23T19:54:39.785Z,61.00
2022-10-23T19:57:08.060Z,61.25
2022-10-23T19:59:35.926Z,61.60
2022-10-23T20:02:06.270Z,61.28
2022-10-23T20:04:35.860Z,61.47
2022-10-23T20:07:03.828Z,61.75
2022-10-23T20:09:33.020Z,61.61
2022-10-23T20:12:01.151Z,61.96
2022-10-23T20:14:29.402Z,61.94
2022-10-23T20:16:57.539Z,61.80
2022-10-23T20:19:25.510Z,61.96
2022-10-23T20:21:53.579Z,61.72
2022-10-23T20:24:21.852Z,61.10
2022-10-23T20:26:53.741Z,61.34
2022-10-23T20:29:21.784Z,61.01
2022-10-23T20:31:49.669Z,61.04
2022-10-23T20:34:17.724Z,60.75
2022-10-23T20:36:47.824Z,60.94
2022-10-23T20:39:21.235Z,61.35
2022-10-23T20:41:49.405Z,61.42
2022-10-23T20:44:18.122Z,61.82
2022-10-23T20:46:45.957Z,62.64
2022-10-23T20:49:14.352Z,62.84
2022-10-23T20:51:44.042Z,62.57
2022-10-23T20:54:11.909Z,61.97
2022-10-23T20:56:39.780Z,61.55
2022-10-23T20:59:13.685Z,61.26
2022-10-23T21:01:43.852Z,61.15
2022-10-23T21:04:13.409Z,61.42
2022-10-23T21:06:57.672Z,61.02
2022-10-23T21:09:30.539Z,60.92
2022-10-23T21:11:58.405Z,61.19
2022-10-23T21:14:26.373Z,60.85
2022-10-23T21:16:54.179Z,60.82
2022-10-23T21:19:22.104Z,60.78
2022-10-23T21:21:50.074Z,60.67
2022-10-23T21:24:18.043Z,60.25
2022-10-23T21:26:46.008Z,60.42
2022-10-23T21:29:18.522Z,60.68
2022-10-23T21:31:55.926Z,60.66
2022-10-23T21:34:24.876Z,59.73
2022-10-23T21:39:42.345Z,59.85
2022-10-23T21:42:11.541Z,59.78
2022-10-23T21:44:39.470Z,60.10
2022-10-23T21:47:07.448Z,59.80
2022-10-23T21:49:35.409Z,60.08
2022-10-23T21:52:04.399Z,59.84
2022-10-23T21:54:32.365Z,57.99
2022-10-23T21:57:00.251Z,56.96
2022-10-23T21:59:31.536Z,56.06
2022-10-23T22:02:01.260Z,57.86
2022-10-23T22:04:29.256Z,59.98
2022-10-23T22:06:57.225Z,59.78
2022-10-23T22:09:24.987Z,59.77
2022-10-23T22:11:53.162Z,60.15
2022-10-23T22:14:22.772Z,65.19
2022-10-23T22:16:50.606Z,70.46
2022-10-23T22:19:19.214Z,70.61
2022-10-23T22:21:48.412Z,69.28
2022-10-23T22:24:17.687Z,67.90
2022-10-23T22:26:51.668Z,66.62
2022-10-23T22:29:26.044Z,65.54
2022-10-23T22:31:53.912Z,64.94
2022-10-23T22:34:34.807Z,64.36
2022-10-23T22:37:13.089Z,63.38
2022-10-23T22:39:41.366Z,63.29
2022-10-23T22:42:09.330Z,63.24
2022-10-23T22:44:37.401Z,63.58
2022-10-23T22:47:05.371Z,63.03
2022-10-23T22:49:33.231Z,62.19
2022-10-23T22:52:01.061Z,62.14
2022-10-23T22:54:30.713Z,61.90
2022-10-23T22:56:58.875Z,62.09
2022-10-23T22:59:26.712Z,61.82
2022-10-23T23:01:54.608Z,61.48
2022-10-23T23:04:38.927Z,61.29
2022-10-23T23:07:09.945Z,61.25
2022-10-23T23:09:42.815Z,60.84
2022-10-23T23:12:12.652Z,60.39
2022-10-23T23:14:40.875Z,60.30
2022-10-23T23:17:09.250Z,60.20
2022-10-23T23:19:37.203Z,60.58
2022-10-23T23:22:05.181Z,60.97
2022-10-23T23:24:33.252Z,60.61
2022-10-23T23:27:01.117Z,60.39
2022-10-23T23:29:29.781Z,60.50
2022-10-23T23:31:57.878Z,60.70
2022-10-23T23:34:25.742Z,60.51
2022-10-23T23:36:53.513Z,59.64
2022-10-23T23:39:21.371Z,58.52
2022-10-23T23:41:49.235Z,58.06
2022-10-23T23:44:17.108Z,61.29
2022-10-23T23:46:44.969Z,65.17
2022-10-23T23:49:12.734Z,66.78
2022-10-23T23:51:40.901Z,66.35
2022-10-23T23:54:08.811Z,65.44
2022-10-23T23:56:36.632Z,64.22
2022-10-23T23:59:04.601Z,63.58
